createdAt,value
2023-03-21T00:01:53.574Z,2.58
2023-03-21T00:04:21.964Z,3.55
2023-03-21T00:06:49.202Z,3.17
2023-03-21T00:09:16.726Z,3.38
2023-03-21T00:11:44.230Z,1.77
2023-03-21T00:14:14.425Z,1.77
2023-03-21T00:16:45.718Z,2.45
2023-03-21T00:19:14.481Z,2.53
2023-03-21T00:22:06.010Z,2.22
2023-03-21T00:24:29.922Z,3.20
2023-03-21T00:29:44.388Z,2.03
2023-03-21T00:32:11.226Z,3.08
2023-03-21T00:34:59.639Z,3.45
2023-03-21T00:37:28.456Z,3.40
2023-03-21T00:39:55.340Z,2.78
2023-03-21T00:42:22.146Z,4.10
2023-03-21T00:44:48.969Z,3.85
2023-03-21T00:47:15.948Z,4.10
2023-03-21T00:49:42.735Z,4.60
2023-03-21T00:52:24.802Z,4.18
2023-03-21T00:54:57.352Z,3.85
2023-03-21T00:57:37.969Z,8.15
2023-03-21T01:00:09.697Z,3.70
2023-03-21T01:02:38.035Z,6.15
2023-03-21T01:05:05.657Z,4.93
2023-03-21T01:07:32.510Z,4.45
2023-03-21T01:09:59.312Z,3.25
2023-03-21T01:12:27.748Z,5.35
2023-03-21T01:14:54.520Z,8.50
2023-03-21T01:17:21.694Z,7.93
2023-03-21T01:19:52.231Z,5.93
2023-03-21T01:22:21.125Z,6.35
2023-03-21T01:24:55.433Z,6.55
2023-03-21T01:27:27.643Z,7.05
2023-03-21T01:29:54.906Z,8.18
2023-03-21T01:32:21.827Z,8.50
2023-03-21T01:34:49.032Z,6.18
2023-03-21T01:37:18.672Z,7.78
2023-03-21T01:39:45.676Z,7.05
2023-03-21T01:42:15.925Z,6.82
2023-03-21T01:44:59.729Z,7.95
2023-03-21T01:47:26.797Z,7.57
2023-03-21T01:49:57.884Z,6.18
2023-03-21T01:52:37.063Z,7.10
2023-03-21T01:55:11.761Z,4.80
2023-03-21T01:57:58.573Z,7.07
2023-03-21T02:00:32.139Z,4.55
2023-03-21T02:03:11.538Z,4.30
2023-03-21T02:06:15.020Z,4.80
2023-03-21T02:08:41.959Z,5.07
2023-03-21T02:11:10.215Z,4.30
2023-03-21T02:13:37.712Z,4.40
2023-03-21T02:16:25.963Z,4.30
2023-03-21T02:19:29.605Z,4.38
2023-03-21T02:22:41.120Z,4.97
2023-03-21T02:25:23.828Z,4.55
2023-03-21T02:27:57.038Z,5.38
2023-03-21T02:30:51.390Z,3.15
2023-03-21T02:33:47.361Z,2.53
2023-03-21T02:36:27.598Z,2.78
2023-03-21T02:39:08.047Z,2.25
2023-03-21T02:42:27.199Z,3.42
2023-03-21T02:45:04.900Z,2.05
2023-03-21T02:47:37.107Z,2.50
2023-03-21T02:50:03.886Z,2.22
2023-03-21T02:52:39.273Z,2.72
2023-03-21T02:55:14.283Z,2.85
2023-03-21T02:57:44.205Z,3.10
2023-03-21T03:00:19.538Z,2.28
2023-03-21T03:02:48.834Z,2.88
2023-03-21T03:05:21.182Z,2.40
2023-03-21T03:08:03.431Z,3.17
2023-03-21T03:10:39.461Z,2.80
2023-03-21T03:13:33.506Z,2.33
2023-03-21T03:16:45.124Z,3.05
2023-03-21T03:19:23.109Z,2.97
2023-03-21T03:22:18.541Z,3.42
2023-03-21T03:24:54.904Z,3.92
2023-03-21T03:27:32.540Z,2.60
2023-03-21T03:30:01.963Z,4.28
2023-03-21T03:32:47.480Z,2.05
2023-03-21T03:35:18.419Z,3.08
2023-03-21T03:37:53.352Z,3.25
2023-03-21T03:40:52.447Z,2.80
2023-03-21T03:43:26.793Z,1.95
2023-03-21T03:46:12.445Z,2.17
2023-03-21T03:49:08.096Z,1.88
2023-03-21T03:51:53.114Z,1.65
2023-03-21T03:54:26.696Z,1.85
2023-03-21T03:56:54.785Z,1.88
2023-03-21T03:59:22.205Z,2.20
2023-03-21T04:01:49.323Z,2.35
2023-03-21T04:04:17.308Z,2.00
2023-03-21T04:06:51.642Z,1.88
2023-03-21T04:09:24.960Z,2.83
2023-03-21T04:11:57.621Z,2.13
2023-03-21T04:14:28.679Z,2.13
2023-03-21T04:16:59.975Z,2.78
2023-03-21T04:19:27.246Z,2.25
2023-03-21T04:21:54.235Z,2.08
2023-03-21T04:24:21.154Z,3.05
2023-03-21T04:26:48.594Z,2.33
2023-03-21T04:29:15.717Z,2.85
2023-03-21T04:31:43.133Z,2.60
2023-03-21T04:34:12.328Z,3.85
2023-03-21T04:36:43.116Z,1.90
2023-03-21T04:39:12.643Z,2.00
2023-03-21T04:41:44.719Z,2.80
2023-03-21T04:44:13.791Z,2.42
2023-03-21T04:46:41.649Z,2.25
2023-03-21T04:49:09.304Z,2.47
2023-03-21T04:51:37.683Z,4.22
2023-03-21T04:54:05.970Z,3.67
2023-03-21T04:56:34.268Z,2.05
2023-03-21T04:59:05.830Z,2.42
2023-03-21T05:01:32.987Z,3.00
2023-03-21T05:04:03.831Z,2.53
2023-03-21T05:06:32.209Z,2.70
2023-03-21T05:09:00.453Z,2.78
2023-03-21T05:11:33.458Z,2.22
2023-03-21T05:14:00.318Z,2.42
2023-03-21T05:16:30.764Z,2.17
2023-03-21T05:18:59.307Z,2.63
2023-03-21T05:21:29.528Z,5.53
2023-03-21T05:23:58.465Z,6.65
2023-03-21T05:26:25.760Z,5.68
2023-03-21T05:28:52.646Z,7.85
2023-03-21T05:31:20.795Z,3.67
2023-03-21T05:33:48.466Z,7.50
2023-03-21T05:36:16.094Z,4.90
2023-03-21T05:38:45.670Z,4.60
2023-03-21T05:41:19.107Z,4.63
2023-03-21T05:43:46.490Z,4.30
2023-03-21T05:46:13.544Z,2.50
2023-03-21T05:48:40.514Z,2.75
2023-03-21T05:51:07.962Z,4.10
2023-03-21T05:53:35.043Z,2.28
2023-03-21T05:56:02.658Z,2.47
2023-03-21T05:58:30.278Z,2.42
2023-03-21T06:00:57.669Z,3.20
2023-03-21T06:03:24.620Z,3.45
2023-03-21T06:05:51.593Z,2.08
2023-03-21T06:08:18.400Z,2.80
2023-03-21T06:10:45.883Z,7.53
2023-03-21T06:13:12.772Z,10.35
2023-03-21T06:15:40.507Z,8.65
2023-03-21T06:18:08.028Z,9.55
2023-03-21T06:20:35.109Z,8.57
2023-03-21T06:23:01.867Z,8.88
2023-03-21T06:25:29.170Z,10.75
2023-03-21T06:27:55.970Z,9.90
2023-03-21T06:30:22.941Z,13.48
2023-03-21T06:32:50.363Z,12.18
2023-03-21T06:35:17.629Z,10.00
2023-03-21T06:37:46.193Z,14.07
2023-03-21T06:40:13.856Z,8.45
2023-03-21T06:42:41.074Z,10.20
2023-03-21T06:45:08.364Z,12.02
2023-03-21T06:47:35.236Z,12.38
2023-03-21T06:50:02.441Z,10.75
2023-03-21T06:52:29.260Z,8.25
2023-03-21T06:54:56.352Z,7.55
2023-03-21T06:57:23.110Z,6.50
2023-03-21T06:59:50.362Z,6.72
2023-03-21T07:02:17.263Z,5.90
2023-03-21T07:04:44.133Z,6.95
2023-03-21T07:07:10.922Z,8.30
2023-03-21T07:09:38.046Z,8.07
2023-03-21T07:12:04.930Z,4.00
2023-03-21T07:14:32.180Z,6.00
2023-03-21T07:16:59.033Z,7.00
2023-03-21T07:19:26.460Z,8.63
2023-03-21T07:21:53.573Z,7.07
2023-03-21T07:24:20.441Z,5.38
2023-03-21T07:26:47.305Z,11.68
2023-03-21T07:29:14.185Z,7.22
2023-03-21T07:31:41.063Z,8.23
2023-03-21T07:34:07.920Z,13.90
2023-03-21T07:36:36.998Z,7.15
2023-03-21T07:39:04.968Z,8.38
2023-03-21T07:41:32.295Z,8.43
2023-03-21T07:43:59.170Z,8.02
2023-03-21T07:46:26.452Z,10.05
2023-03-21T07:48:53.357Z,9.32
2023-03-21T07:51:20.432Z,8.52
2023-03-21T07:53:48.812Z,8.73
2023-03-21T07:56:15.994Z,15.38
2023-03-21T07:58:42.897Z,12.15
2023-03-21T08:01:09.849Z,10.23
2023-03-21T08:03:38.096Z,7.85
2023-03-21T08:06:05.594Z,12.25
2023-03-21T08:08:33.446Z,22.30
2023-03-21T08:11:00.420Z,38.42
2023-03-21T08:13:27.779Z,13.02
2023-03-21T08:15:54.586Z,13.55
2023-03-21T08:18:21.479Z,10.63
2023-03-21T08:20:56.205Z,7.70
2023-03-21T08:23:24.611Z,8.45
2023-03-21T08:25:53.430Z,12.20
2023-03-21T08:28:21.368Z,10.10
2023-03-21T08:30:48.431Z,12.68
2023-03-21T08:33:15.969Z,10.38
2023-03-21T08:35:43.236Z,9.38
2023-03-21T08:38:10.578Z,10.20
2023-03-21T08:40:38.043Z,9.43
2023-03-21T08:43:05.413Z,13.73
2023-03-21T08:45:32.374Z,11.32
2023-03-21T08:47:59.583Z,10.68
2023-03-21T08:50:29.583Z,10.38
2023-03-21T08:52:56.550Z,17.65
2023-03-21T08:55:23.811Z,12.30
2023-03-21T08:57:50.656Z,12.25
2023-03-21T09:00:20.821Z,15.40
2023-03-21T09:02:51.426Z,14.18
2023-03-21T09:05:18.957Z,16.67
2023-03-21T09:07:46.432Z,16.23
2023-03-21T09:10:21.461Z,10.95
2023-03-21T09:12:51.275Z,8.73
2023-03-21T09:15:20.270Z,11.95
2023-03-21T09:17:52.668Z,12.15
2023-03-21T09:20:26.358Z,10.20
2023-03-21T09:22:53.814Z,11.65
2023-03-21T09:25:21.559Z,4.85
2023-03-21T09:27:48.825Z,5.57
2023-03-21T09:30:18.892Z,8.43
2023-03-21T09:32:48.713Z,6.45
2023-03-21T09:35:18.841Z,4.90
2023-03-21T09:37:50.006Z,4.50
2023-03-21T09:40:20.244Z,3.67
2023-03-21T09:43:07.081Z,4.50
2023-03-21T09:45:47.252Z,2.95
2023-03-21T09:48:30.316Z,3.58
2023-03-21T09:50:57.946Z,6.47
2023-03-21T09:53:38.985Z,5.15
2023-03-21T09:56:10.793Z,2.45
2023-03-21T09:58:46.833Z,4.07
2023-03-21T10:01:34.339Z,10.13
2023-03-21T10:04:04.851Z,6.72
2023-03-21T10:06:34.266Z,8.88
2023-03-21T10:09:07.522Z,4.28
2023-03-21T10:11:44.693Z,4.65
2023-03-21T10:14:35.609Z,4.57
2023-03-21T10:17:35.725Z,7.53
2023-03-21T10:20:22.412Z,6.40
2023-03-21T10:22:52.593Z,7.50
2023-03-21T10:25:25.452Z,4.47
2023-03-21T10:27:52.792Z,5.63
2023-03-21T10:30:38.662Z,6.43
2023-03-21T10:33:09.618Z,6.68
2023-03-21T10:35:40.021Z,6.78
2023-03-21T10:38:16.512Z,5.18
2023-03-21T10:40:43.882Z,5.63
2023-03-21T10:43:18.321Z,5.75
2023-03-21T10:45:47.466Z,5.07
2023-03-21T10:48:14.739Z,4.53
2023-03-21T10:50:43.122Z,7.28
2023-03-21T10:53:18.777Z,4.10
2023-03-21T10:55:51.031Z,2.80
2023-03-21T10:58:29.337Z,3.58
2023-03-21T11:01:02.823Z,6.50
2023-03-21T11:03:44.657Z,4.82
2023-03-21T11:06:17.706Z,5.13
2023-03-21T11:08:48.817Z,3.50
2023-03-21T11:11:26.320Z,6.28
2023-03-21T11:14:09.387Z,5.60
2023-03-21T11:16:44.252Z,6.18
2023-03-21T11:19:27.249Z,7.32
2023-03-21T11:21:56.591Z,5.82
2023-03-21T11:24:23.981Z,5.60
2023-03-21T11:26:51.411Z,5.30
2023-03-21T11:29:32.903Z,6.95
2023-03-21T11:32:36.149Z,8.05
2023-03-21T11:35:39.363Z,6.57
2023-03-21T11:38:23.587Z,8.50
2023-03-21T11:40:58.086Z,7.53
2023-03-21T11:43:39.148Z,6.30
2023-03-21T11:46:13.969Z,6.35
2023-03-21T11:48:43.915Z,7.63
2023-03-21T11:51:55.524Z,6.30
2023-03-21T11:54:45.939Z,6.20
2023-03-21T11:57:37.265Z,4.68
2023-03-21T12:00:26.069Z,4.53
2023-03-21T12:03:17.809Z,7.82
2023-03-21T12:05:56.220Z,5.03
2023-03-21T12:08:40.683Z,5.90
2023-03-21T12:11:32.520Z,4.32
2023-03-21T12:14:24.033Z,4.90
2023-03-21T12:16:53.726Z,4.00
2023-03-21T12:19:42.407Z,3.65
2023-03-21T12:22:39.153Z,3.92
2023-03-21T12:25:15.782Z,5.32
2023-03-21T12:27:49.398Z,5.18
2023-03-21T12:30:42.981Z,3.85
2023-03-21T12:33:28.028Z,5.82
2023-03-21T12:35:55.195Z,4.00
2023-03-21T12:38:31.068Z,4.55
2023-03-21T12:40:58.047Z,5.35
2023-03-21T12:43:39.597Z,3.72
2023-03-21T12:46:13.586Z,3.33
2023-03-21T12:48:52.543Z,4.57
2023-03-21T12:51:24.389Z,5.43
2023-03-21T12:54:19.118Z,3.92
2023-03-21T12:56:54.548Z,5.95
2023-03-21T12:59:36.327Z,4.43
2023-03-21T13:02:52.667Z,4.03
2023-03-21T13:05:29.032Z,6.72
2023-03-21T13:08:11.957Z,2.72
2023-03-21T13:10:42.122Z,6.00
2023-03-21T13:13:27.614Z,2.58
2023-03-21T13:16:09.282Z,2.35
2023-03-21T13:18:48.059Z,2.78
2023-03-21T13:21:19.495Z,2.65
2023-03-21T13:24:02.061Z,4.75
2023-03-21T13:26:41.993Z,3.67
2023-03-21T13:29:26.568Z,4.93
2023-03-21T13:31:57.507Z,3.38
2023-03-21T13:34:25.602Z,2.97
2023-03-21T13:36:53.330Z,3.72
2023-03-21T13:39:26.413Z,3.92
2023-03-21T13:41:54.677Z,3.22
2023-03-21T13:44:35.923Z,2.80
2023-03-21T13:47:06.174Z,3.10
2023-03-21T13:49:38.090Z,2.10
2023-03-21T13:52:11.082Z,1.50
2023-03-21T13:54:52.008Z,2.22
2023-03-21T13:57:27.847Z,2.50
2023-03-21T14:00:20.257Z,2.67
2023-03-21T14:03:06.703Z,4.25
2023-03-21T14:05:35.447Z,3.22
2023-03-21T14:08:15.209Z,3.67
2023-03-21T14:10:52.423Z,3.40
2023-03-21T14:13:24.749Z,2.95
2023-03-21T14:15:56.848Z,3.85
2023-03-21T14:18:35.031Z,6.10
2023-03-21T14:21:26.427Z,2.92
2023-03-21T14:24:02.867Z,2.03
2023-03-21T14:26:36.320Z,3.55
2023-03-21T14:29:22.991Z,7.28
2023-03-21T14:31:53.558Z,1.60
2023-03-21T14:34:22.076Z,2.63
2023-03-21T14:36:57.796Z,2.13
2023-03-21T14:39:33.405Z,3.50
2023-03-21T14:42:08.371Z,5.55
2023-03-21T14:44:44.073Z,2.67
2023-03-21T14:47:20.995Z,3.33
2023-03-21T14:49:49.768Z,3.78
2023-03-21T14:52:31.150Z,3.90
2023-03-21T14:54:58.641Z,2.63
2023-03-21T14:57:32.225Z,3.78
2023-03-21T15:00:12.478Z,2.35
2023-03-21T15:02:42.286Z,2.30
2023-03-21T15:05:30.822Z,3.95
2023-03-21T15:08:15.405Z,3.75
2023-03-21T15:11:06.028Z,3.45
2023-03-21T15:13:55.500Z,2.65
2023-03-21T15:16:22.672Z,2.63
2023-03-21T15:18:50.811Z,3.33
2023-03-21T15:21:30.408Z,2.65
2023-03-21T15:24:13.535Z,7.07
2023-03-21T15:26:43.939Z,3.35
2023-03-21T15:29:12.812Z,3.67
2023-03-21T15:31:40.822Z,3.65
2023-03-21T15:34:17.311Z,6.55
2023-03-21T15:36:47.692Z,3.33
2023-03-21T15:39:16.962Z,5.03
2023-03-21T15:42:05.019Z,2.75
2023-03-21T15:44:33.622Z,5.20
2023-03-21T15:47:00.771Z,4.88
2023-03-21T15:49:32.896Z,4.65
2023-03-21T15:51:59.729Z,2.20
2023-03-21T15:54:42.014Z,2.92
2023-03-21T15:57:24.402Z,3.88
2023-03-21T16:00:06.390Z,4.47
2023-03-21T16:02:33.773Z,3.13
2023-03-21T16:05:23.703Z,4.30
2023-03-21T16:07:50.566Z,2.95
2023-03-21T16:10:28.821Z,3.88
2023-03-21T16:12:56.036Z,2.55
2023-03-21T16:15:27.727Z,2.75
2023-03-21T16:17:58.453Z,3.45
2023-03-21T16:20:36.802Z,3.63
2023-03-21T16:23:04.431Z,20.17
2023-03-21T16:25:32.282Z,7.22
2023-03-21T16:27:59.609Z,2.40
2023-03-21T16:30:27.460Z,2.05
2023-03-21T16:32:54.797Z,2.72
2023-03-21T16:35:23.420Z,1.20
2023-03-21T16:37:50.755Z,1.50
2023-03-21T16:40:31.497Z,2.45
2023-03-21T16:42:58.503Z,2.38
2023-03-21T16:45:25.672Z,4.22
2023-03-21T16:47:53.057Z,4.65
2023-03-21T16:50:24.435Z,3.95
2023-03-21T16:52:52.271Z,4.68
2023-03-21T16:55:20.003Z,5.10
2023-03-21T16:57:47.811Z,4.65
2023-03-21T17:00:20.448Z,7.57
2023-03-21T17:02:50.982Z,7.88
2023-03-21T17:05:18.186Z,7.03
2023-03-21T17:07:47.002Z,9.48
2023-03-21T17:10:23.319Z,7.43
2023-03-21T17:12:50.430Z,11.27
2023-03-21T17:15:18.356Z,12.57
2023-03-21T17:17:55.715Z,13.27
2023-03-21T17:20:26.906Z,11.15
2023-03-21T17:22:53.821Z,7.90
2023-03-21T17:25:20.811Z,10.80
2023-03-21T17:27:57.065Z,13.68
2023-03-21T17:30:37.458Z,15.52
2023-03-21T17:33:04.604Z,12.95
2023-03-21T17:35:32.285Z,13.10
2023-03-21T17:38:00.468Z,15.68
2023-03-21T17:40:30.494Z,27.83
2023-03-21T17:42:58.453Z,36.53
2023-03-21T17:45:25.931Z,36.60
2023-03-21T17:47:54.950Z,31.05
2023-03-21T17:50:25.215Z,27.83
2023-03-21T17:52:54.534Z,19.45
2023-03-21T17:55:21.504Z,20.35
2023-03-21T17:57:49.420Z,23.27
2023-03-21T18:00:23.554Z,23.88
2023-03-21T18:02:53.392Z,33.00
2023-03-21T18:05:21.873Z,30.85
2023-03-21T18:10:37.043Z,45.03
2023-03-21T18:13:04.444Z,51.15
2023-03-21T18:15:31.713Z,43.47
2023-03-21T18:17:59.266Z,46.85
2023-03-21T18:20:50.345Z,32.30
2023-03-21T18:23:18.778Z,51.70
2023-03-21T18:25:45.908Z,54.97
2023-03-21T18:28:13.822Z,45.38
2023-03-21T18:31:09.665Z,35.38
2023-03-21T18:33:30.088Z,34.15
2023-03-21T18:36:06.995Z,28.75
2023-03-21T18:38:34.742Z,32.55
2023-03-21T18:41:01.581Z,41.67
2023-03-21T18:46:15.994Z,52.28
2023-03-21T18:48:42.858Z,36.42
2023-03-21T18:51:13.480Z,21.80
2023-03-21T18:53:40.766Z,24.38
2023-03-21T18:56:10.097Z,23.25
2023-03-21T18:58:39.599Z,23.98
2023-03-21T19:01:06.818Z,25.25
2023-03-21T19:03:37.056Z,18.92
2023-03-21T19:06:05.658Z,23.88
2023-03-21T19:08:34.828Z,20.40
2023-03-21T19:11:05.944Z,27.65
2023-03-21T19:13:33.979Z,24.42
2023-03-21T19:16:04.423Z,31.48
2023-03-21T19:18:53.978Z,21.10
2023-03-21T19:21:20.001Z,17.85
2023-03-21T19:24:23.034Z,23.92
2023-03-21T19:26:34.536Z,19.45
2023-03-21T19:29:01.800Z,23.27
2023-03-21T19:31:28.634Z,22.92
2023-03-21T19:33:56.168Z,19.33
2023-03-21T19:36:23.548Z,16.20
2023-03-21T19:38:51.666Z,19.77
2023-03-21T19:41:20.474Z,15.68
2023-03-21T19:43:54.760Z,17.60
2023-03-21T19:46:25.175Z,18.90
2023-03-21T19:48:56.574Z,17.88
2023-03-21T19:51:29.446Z,16.08
2023-03-21T19:53:58.128Z,14.90
2023-03-21T19:56:27.247Z,20.33
2023-03-21T19:58:55.690Z,17.05
2023-03-21T20:01:24.268Z,12.40
2023-03-21T20:03:51.630Z,10.50
2023-03-21T20:06:19.332Z,13.52
2023-03-21T20:09:34.170Z,12.27
2023-03-21T20:11:33.949Z,10.13
2023-03-21T20:14:03.272Z,10.45
2023-03-21T20:16:35.056Z,10.82
2023-03-21T20:19:08.928Z,10.65
2023-03-21T20:21:46.539Z,10.82
2023-03-21T20:24:17.670Z,10.80
2023-03-21T20:26:45.848Z,12.93
2023-03-21T20:30:14.616Z,10.80
2023-03-21T20:32:00.234Z,9.65
2023-03-21T20:34:30.630Z,8.38
2023-03-21T20:36:58.615Z,11.52
2023-03-21T20:39:28.024Z,11.27
2023-03-21T20:41:56.250Z,16.77
2023-03-21T20:47:10.598Z,11.82
2023-03-21T20:49:37.509Z,11.18
2023-03-21T20:54:54.106Z,10.23
2023-03-21T20:57:21.076Z,15.70
2023-03-21T20:59:48.057Z,9.50
2023-03-21T21:02:15.007Z,7.65
2023-03-21T21:04:57.307Z,12.15
2023-03-21T21:07:31.834Z,10.82
2023-03-21T21:09:58.714Z,12.25
2023-03-21T21:12:27.770Z,10.52
2023-03-21T21:14:56.196Z,6.30
2023-03-21T21:17:57.886Z,12.10
2023-03-21T21:20:17.125Z,9.50
2023-03-21T21:22:58.118Z,9.35
2023-03-21T21:25:27.010Z,8.70
2023-03-21T21:27:53.946Z,8.30
2023-03-21T21:30:21.252Z,6.82
2023-03-21T21:32:49.352Z,10.60
2023-03-21T21:35:17.985Z,7.90
2023-03-21T21:37:44.971Z,9.02
2023-03-21T21:40:20.312Z,7.07
2023-03-21T21:42:47.328Z,6.97
2023-03-21T21:45:14.675Z,6.13
2023-03-21T21:47:44.579Z,7.55
2023-03-21T21:50:11.728Z,8.30
2023-03-21T21:52:38.603Z,5.10
2023-03-21T21:55:06.536Z,5.45
2023-03-21T21:57:52.882Z,6.35
2023-03-21T22:00:20.577Z,8.43
2023-03-21T22:02:47.605Z,6.22
2023-03-21T22:05:14.600Z,7.65
2023-03-21T22:07:41.980Z,7.32
2023-03-21T22:10:09.729Z,8.18
2023-03-21T22:12:36.623Z,7.00
2023-03-21T22:15:06.932Z,8.05
2023-03-21T22:17:35.216Z,5.55
2023-03-21T22:20:06.350Z,5.25
2023-03-21T22:22:34.818Z,5.55
2023-03-21T22:25:02.520Z,6.25
2023-03-21T22:27:29.575Z,5.07
2023-03-21T22:29:56.467Z,7.45
2023-03-21T22:32:23.666Z,6.10
2023-03-21T22:34:50.686Z,4.88
2023-03-21T22:37:17.930Z,5.45
2023-03-21T22:39:47.446Z,4.97
2023-03-21T22:42:14.271Z,5.72
2023-03-21T22:44:44.002Z,5.75
2023-03-21T22:47:11.739Z,5.03
2023-03-21T22:49:40.295Z,4.38
2023-03-21T22:52:07.353Z,4.72
2023-03-21T22:54:34.372Z,5.50
2023-03-21T22:57:01.959Z,5.18
2023-03-21T22:59:29.260Z,4.70
2023-03-21T23:01:56.794Z,6.20
2023-03-21T23:04:25.221Z,5.43
2023-03-21T23:06:55.145Z,5.82
2023-03-21T23:09:22.019Z,4.43
2023-03-21T23:11:49.733Z,7.25
2023-03-21T23:14:20.911Z,6.93
2023-03-21T23:16:49.673Z,5.40
2023-03-21T23:19:16.541Z,3.80
2023-03-21T23:21:44.429Z,5.43
2023-03-21T23:24:11.869Z,5.72
2023-03-21T23:26:39.326Z,5.57
2023-03-21T23:29:09.286Z,4.88
2023-03-21T23:31:37.064Z,7.80
2023-03-21T23:34:04.499Z,4.45
2023-03-21T23:36:31.334Z,4.93
2023-03-21T23:38:58.763Z,6.28
2023-03-21T23:41:26.141Z,6.95
2023-03-21T23:43:53.195Z,6.47
2023-03-21T23:46:20.569Z,4.93
2023-03-21T23:48:47.620Z,4.70
2023-03-21T23:51:19.872Z,4.03
2023-03-21T23:53:47.304Z,7.75
2023-03-21T23:56:18.910Z,6.15
2023-03-21T23:58:46.409Z,4.30
